sensor_id;sensor_type;location;lat;lon;timestamp;pressure;altitude;pressure_sealevel;temperature;humidity
64292;BME280;50628;51.008;13.658;2024-02-21T00:02:57;100387.75;;;7.96;100.00
64292;BME280;50628;51.008;13.658;2024-02-21T00:08:02;100371.84;;;8.02;100.00
64292;BME280;50628;51.008;13.658;2024-02-21T00:13:04;100360.66;;;8.01;100.00
64292;BME280;50628;51.008;13.658;2024-02-21T00:18:06;100355.47;;;8.01;100.00
64292;BME280;50628;51.008;13.658;2024-02-21T00:23:09;100351.66;;;7.93;100.00
64292;BME280;50628;51.008;13.658;2024-02-21T00:28:12;100344.72;;;7.93;100.00
64292;BME280;50628;51.008;13.658;2024-02-21T00:33:14;100343.69;;;7.96;100.00
64292;BME280;50628;51.008;13.658;2024-02-21T00:38:17;100332.88;;;8.03;100.00
64292;BME280;50628;51.008;13.658;2024-02-21T00:43:19;100328.63;;;8.02;100.00
64292;BME280;50628;51.008;13.658;2024-02-21T00:48:24;100330.47;;;8.00;100.00
64292;BME280;50628;51.008;13.658;2024-02-21T00:53:27;100322.50;;;8.03;100.00
64292;BME280;50628;51.008;13.658;2024-02-21T00:58:29;100324.72;;;8.10;100.00
64292;BME280;50628;51.008;13.658;2024-02-21T01:03:30;100315.47;;;8.06;100.00
64292;BME280;50628;51.008;13.658;2024-02-21T01:08:34;100315.75;;;8.01;100.00
64292;BME280;50628;51.008;13.658;2024-02-21T01:13:35;100295.94;;;8.00;100.00
64292;BME280;50628;51.008;13.658;2024-02-21T01:18:38;100295.19;;;7.98;100.00
64292;BME280;50628;51.008;13.658;2024-02-21T01:23:42;100279.63;;;7.98;100.00
64292;BME280;50628;51.008;13.658;2024-02-21T01:28:44;100274.91;;;8.05;100.00
64292;BME280;50628;51.008;13.658;2024-02-21T01:33:46;100272.34;;;8.05;100.00
64292;BME280;50628;51.008;13.658;2024-02-21T01:38:49;100249.00;;;8.05;100.00
64292;BME280;50628;51.008;13.658;2024-02-21T01:43:51;100249.19;;;8.01;100.00
64292;BME280;50628;51.008;13.658;2024-02-21T01:48:54;100234.34;;;8.03;100.00
64292;BME280;50628;51.008;13.658;2024-02-21T01:53:57;100235.56;;;7.98;100.00
64292;BME280;50628;51.008;13.658;2024-02-21T01:58:59;100230.13;;;7.88;100.00
64292;BME280;50628;51.008;13.658;2024-02-21T02:04:02;100231.53;;;7.94;100.00
64292;BME280;50628;51.008;13.658;2024-02-21T02:09:07;100213.66;;;7.89;100.00
64292;BME280;50628;51.008;13.658;2024-02-21T02:14:08;100220.69;;;7.87;100.00
64292;BME280;50628;51.008;13.658;2024-02-21T02:19:10;100218.44;;;7.95;100.00
64292;BME280;50628;51.008;13.658;2024-02-21T02:24:15;100212.53;;;7.93;100.00
64292;BME280;50628;51.008;13.658;2024-02-21T02:29:17;100211.16;;;7.88;100.00
64292;BME280;50628;51.008;13.658;2024-02-21T02:34:19;100208.38;;;7.91;100.00
64292;BME280;50628;51.008;13.658;2024-02-21T02:39:23;100209.31;;;7.90;100.00
64292;BME280;50628;51.008;13.658;2024-02-21T02:44:24;100213.28;;;7.95;100.00
64292;BME280;50628;51.008;13.658;2024-02-21T02:49:26;100200.31;;;7.95;100.00
64292;BME280;50628;51.008;13.658;2024-02-21T02:54:29;100193.47;;;7.94;100.00
64292;BME280;50628;51.008;13.658;2024-02-21T02:59:31;100188.56;;;7.90;100.00
64292;BME280;50628;51.008;13.658;2024-02-21T03:04:33;100176.63;;;7.87;100.00
64292;BME280;50628;51.008;13.658;2024-02-21T03:09:36;100178.41;;;7.72;100.00
64292;BME280;50628;51.008;13.658;2024-02-21T03:14:38;100168.59;;;7.77;100.00
64292;BME280;50628;51.008;13.658;2024-02-21T03:19:40;100176.38;;;7.77;100.00
64292;BME280;50628;51.008;13.658;2024-02-21T03:24:44;100160.75;;;7.79;100.00
64292;BME280;50628;51.008;13.658;2024-02-21T03:29:46;100168.41;;;7.80;100.00
64292;BME280;50628;51.008;13.658;2024-02-21T03:34:48;100169.41;;;7.78;100.00
64292;BME280;50628;51.008;13.658;2024-02-21T03:39:51;100167.97;;;7.74;100.00
64292;BME280;50628;51.008;13.658;2024-02-21T03:44:53;100163.69;;;7.73;100.00
64292;BME280;50628;51.008;13.658;2024-02-21T03:49:55;100163.63;;;7.74;100.00
64292;BME280;50628;51.008;13.658;2024-02-21T03:54:58;100168.41;;;7.80;100.00
64292;BME280;50628;51.008;13.658;2024-02-21T04:00:00;100165.38;;;7.74;100.00
64292;BME280;50628;51.008;13.658;2024-02-21T04:05:08;100157.41;;;7.77;100.00
64292;BME280;50628;51.008;13.658;2024-02-21T04:10:13;100153.34;;;7.73;100.00
64292;BME280;50628;51.008;13.658;2024-02-21T04:15:15;100154.06;;;7.75;100.00
64292;BME280;50628;51.008;13.658;2024-02-21T04:20:17;100144.56;;;7.61;100.00
64292;BME280;50628;51.008;13.658;2024-02-21T04:25:20;100139.00;;;7.67;100.00
64292;BME280;50628;51.008;13.658;2024-02-21T04:30:22;100142.97;;;7.73;100.00
64292;BME280;50628;51.008;13.658;2024-02-21T04:35:24;100138.31;;;7.78;100.00
64292;BME280;50628;51.008;13.658;2024-02-21T04:40:27;100143.69;;;7.89;100.00
64292;BME280;50628;51.008;13.658;2024-02-21T04:45:29;100144.31;;;7.93;100.00
64292;BME280;50628;51.008;13.658;2024-02-21T04:50:31;100150.19;;;7.82;100.00
64292;BME280;50628;51.008;13.658;2024-02-21T04:55:34;100138.59;;;7.73;100.00
64292;BME280;50628;51.008;13.658;2024-02-21T05:00:36;100138.53;;;7.75;100.00
64292;BME280;50628;51.008;13.658;2024-02-21T05:05:38;100130.75;;;7.75;100.00
64292;BME280;50628;51.008;13.658;2024-02-21T05:10:41;100124.34;;;7.80;100.00
64292;BME280;50628;51.008;13.658;2024-02-21T05:15:43;100121.88;;;7.79;100.00
64292;BME280;50628;51.008;13.658;2024-02-21T05:20:45;100125.00;;;7.84;100.00
64292;BME280;50628;51.008;13.658;2024-02-21T05:25:48;100124.47;;;7.79;100.00
64292;BME280;50628;51.008;13.658;2024-02-21T05:30:50;100124.63;;;7.76;100.00
64292;BME280;50628;51.008;13.658;2024-02-21T05:35:52;100115.94;;;7.77;100.00
64292;BME280;50628;51.008;13.658;2024-02-21T05:40:55;100109.47;;;7.70;100.00
64292;BME280;50628;51.008;13.658;2024-02-21T05:45:57;100112.22;;;7.81;100.00
64292;BME280;50628;51.008;13.658;2024-02-21T05:51:01;100103.72;;;7.79;100.00
64292;BME280;50628;51.008;13.658;2024-02-21T05:56:10;100087.78;;;7.85;100.00
64292;BME280;50628;51.008;13.658;2024-02-21T06:01:12;100091.72;;;7.91;100.00
64292;BME280;50628;51.008;13.658;2024-02-21T06:06:13;100085.00;;;7.88;100.00
64292;BME280;50628;51.008;13.658;2024-02-21T06:11:17;100074.09;;;7.83;100.00
64292;BME280;50628;51.008;13.658;2024-02-21T06:16:19;100064.75;;;7.80;100.00
64292;BME280;50628;51.008;13.658;2024-02-21T06:21:21;100053.84;;;7.75;100.00
64292;BME280;50628;51.008;13.658;2024-02-21T06:26:24;100039.97;;;7.76;100.00
64292;BME280;50628;51.008;13.658;2024-02-21T06:31:27;100044.91;;;7.67;100.00
64292;BME280;50628;51.008;13.658;2024-02-21T06:36:28;100037.47;;;7.75;100.00
64292;BME280;50628;51.008;13.658;2024-02-21T06:41:32;100032.91;;;7.78;100.00
64292;BME280;50628;51.008;13.658;2024-02-21T06:46:35;100034.34;;;7.97;100.00
64292;BME280;50628;51.008;13.658;2024-02-21T06:51:36;100039.72;;;7.94;100.00
64292;BME280;50628;51.008;13.658;2024-02-21T06:56:40;100037.53;;;8.00;100.00
64292;BME280;50628;51.008;13.658;2024-02-21T07:01:45;100056.84;;;7.96;100.00
64292;BME280;50628;51.008;13.658;2024-02-21T07:06:46;100052.16;;;7.89;100.00
64292;BME280;50628;51.008;13.658;2024-02-21T07:11:50;100046.06;;;8.02;100.00
64292;BME280;50628;51.008;13.658;2024-02-21T07:16:52;100056.84;;;7.96;100.00
64292;BME280;50628;51.008;13.658;2024-02-21T07:21:53;100062.84;;;7.97;100.00
64292;BME280;50628;51.008;13.658;2024-02-21T07:26:57;100059.56;;;8.08;100.00
64292;BME280;50628;51.008;13.658;2024-02-21T07:32:05;100069.72;;;8.11;100.00
64292;BME280;50628;51.008;13.658;2024-02-21T07:37:06;100074.53;;;8.17;100.00
64292;BME280;50628;51.008;13.658;2024-02-21T07:42:10;100065.59;;;8.34;100.00
64292;BME280;50628;51.008;13.658;2024-02-21T07:47:12;100050.94;;;8.47;100.00
64292;BME280;50628;51.008;13.658;2024-02-21T07:52:13;100043.94;;;8.35;100.00
64292;BME280;50628;51.008;13.658;2024-02-21T07:57:17;100037.00;;;8.35;100.00
64292;BME280;50628;51.008;13.658;2024-02-21T08:02:18;100034.19;;;8.38;100.00
64292;BME280;50628;51.008;13.658;2024-02-21T08:07:20;100033.69;;;8.46;100.00
64292;BME280;50628;51.008;13.658;2024-02-21T08:12:23;100036.44;;;8.57;100.00
64292;BME280;50628;51.008;13.658;2024-02-21T08:17:25;100042.22;;;8.74;100.00
64292;BME280;50628;51.008;13.658;2024-02-21T08:22:27;100062.47;;;8.81;100.00
64292;BME280;50628;51.008;13.658;2024-02-21T08:27:30;100051.78;;;8.73;100.00
64292;BME280;50628;51.008;13.658;2024-02-21T08:32:32;100036.91;;;8.88;100.00
64292;BME280;50628;51.008;13.658;2024-02-21T08:37:36;100019.88;;;8.97;100.00
64292;BME280;50628;51.008;13.658;2024-02-21T08:42:40;100022.47;;;8.97;100.00
64292;BME280;50628;51.008;13.658;2024-02-21T08:47:42;100030.25;;;8.97;100.00
64292;BME280;50628;51.008;13.658;2024-02-21T08:52:44;100029.03;;;8.90;100.00
64292;BME280;50628;51.008;13.658;2024-02-21T08:57:48;100017.28;;;8.97;100.00
64292;BME280;50628;51.008;13.658;2024-02-21T09:02:49;100014.00;;;9.19;100.00
64292;BME280;50628;51.008;13.658;2024-02-21T09:07:51;100014.66;;;9.09;100.00
64292;BME280;50628;51.008;13.658;2024-02-21T09:12:55;100023.59;;;9.05;100.00
64292;BME280;50628;51.008;13.658;2024-02-21T09:17:57;100023.59;;;9.05;100.00
64292;BME280;50628;51.008;13.658;2024-02-21T09:22:58;100026.19;;;9.05;100.00
64292;BME280;50628;51.008;13.658;2024-02-21T09:28:02;100028.81;;;9.05;100.00
64292;BME280;50628;51.008;13.658;2024-02-21T09:33:06;100038.66;;;9.13;100.00
64292;BME280;50628;51.008;13.658;2024-02-21T09:38:08;100038.84;;;9.23;100.00
64292;BME280;50628;51.008;13.658;2024-02-21T09:43:16;100049.25;;;9.10;100.00
64292;BME280;50628;51.008;13.658;2024-02-21T09:48:31;100044.25;;;9.07;100.00
64292;BME280;50628;51.008;13.658;2024-02-21T09:53:37;100047.47;;;9.10;100.00
64292;BME280;50628;51.008;13.658;2024-02-21T09:58:40;100039.91;;;9.07;100.00
64292;BME280;50628;51.008;13.658;2024-02-21T10:03:42;100026.94;;;9.07;100.00
64292;BME280;50628;51.008;13.658;2024-02-21T10:08:51;100035.47;;;9.34;100.00
64292;BME280;50628;51.008;13.658;2024-02-21T10:14:03;100042.66;;;9.30;100.00
64292;BME280;50628;51.008;13.658;2024-02-21T10:19:06;100037.06;;;9.23;100.00
64292;BME280;50628;51.008;13.658;2024-02-21T10:24:09;100023.09;;;9.37;100.00
64292;BME280;50628;51.008;13.658;2024-02-21T10:29:14;100028.88;;;9.53;100.00
64292;BME280;50628;51.008;13.658;2024-02-21T10:34:16;100028.91;;;9.65;100.00
64292;BME280;50628;51.008;13.658;2024-02-21T10:39:18;100031.72;;;9.62;100.00
64292;BME280;50628;51.008;13.658;2024-02-21T10:44:22;100030.06;;;9.37;100.00
64292;BME280;50628;51.008;13.658;2024-02-21T10:49:25;100010.66;;;9.29;100.00
64292;BME280;50628;51.008;13.658;2024-02-21T10:54:39;100003.22;;;9.25;100.00
64292;BME280;50628;51.008;13.658;2024-02-21T10:59:48;100016.19;;;9.25;100.00
64292;BME280;50628;51.008;13.658;2024-02-21T11:04:50;99999.66;;;9.26;100.00
64292;BME280;50628;51.008;13.658;2024-02-21T11:09:54;99995.09;;;9.17;100.00
64292;BME280;50628;51.008;13.658;2024-02-21T11:15:05;99989.53;;;9.10;100.00
64292;BME280;50628;51.008;13.658;2024-02-21T11:20:11;99980.88;;;9.09;100.00
64292;BME280;50628;51.008;13.658;2024-02-21T11:25:21;99960.75;;;9.13;100.00
64292;BME280;50628;51.008;13.658;2024-02-21T11:30:30;99963.94;;;9.17;100.00
64292;BME280;50628;51.008;13.658;2024-02-21T11:35:34;99938.59;;;9.20;100.00
64292;BME280;50628;51.008;13.658;2024-02-21T11:40:38;99930.13;;;9.29;100.00
64292;BME280;50628;51.008;13.658;2024-02-21T11:45:42;99935.69;;;9.25;100.00
64292;BME280;50628;51.008;13.658;2024-02-21T11:50:52;99908.28;;;9.32;100.00
64292;BME280;50628;51.008;13.658;2024-02-21T11:55:55;99903.66;;;9.48;100.00
64292;BME280;50628;51.008;13.658;2024-02-21T12:00:58;99879.31;;;9.96;100.00
64292;BME280;50628;51.008;13.658;2024-02-21T12:06:03;99870.47;;;9.99;100.00
64292;BME280;50628;51.008;13.658;2024-02-21T12:11:16;99874.59;;;10.12;100.00
64292;BME280;50628;51.008;13.658;2024-02-21T12:16:20;99857.59;;;10.53;100.00
64292;BME280;50628;51.008;13.658;2024-02-21T12:21:24;99857.41;;;10.77;100.00
64292;BME280;50628;51.008;13.658;2024-02-21T12:26:26;99829.44;;;11.23;100.00
64292;BME280;50628;51.008;13.658;2024-02-21T12:31:29;99809.78;;;11.61;100.00
64292;BME280;50628;51.008;13.658;2024-02-21T12:36:32;99798.72;;;11.68;100.00
64292;BME280;50628;51.008;13.658;2024-02-21T12:41:34;99788.56;;;11.65;100.00
64292;BME280;50628;51.008;13.658;2024-02-21T12:46:40;99771.78;;;12.20;100.00
64292;BME280;50628;51.008;13.658;2024-02-21T12:51:42;99779.63;;;12.29;100.00
64292;BME280;50628;51.008;13.658;2024-02-21T12:56:44;99759.66;;;12.98;100.00
64292;BME280;50628;51.008;13.658;2024-02-21T13:01:47;99748.59;;;13.24;100.00
64292;BME280;50628;51.008;13.658;2024-02-21T13:06:49;99743.78;;;13.48;100.00
64292;BME280;50628;51.008;13.658;2024-02-21T13:11:51;99737.38;;;14.16;100.00
64292;BME280;50628;51.008;13.658;2024-02-21T13:16:54;99723.78;;;14.12;100.00
64292;BME280;50628;51.008;13.658;2024-02-21T13:21:56;99721.09;;;13.76;100.00
64292;BME280;50628;51.008;13.658;2024-02-21T13:26:58;99700.53;;;14.09;100.00
64292;BME280;50628;51.008;13.658;2024-02-21T13:32:01;99689.94;;;14.01;100.00
64292;BME280;50628;51.008;13.658;2024-02-21T13:37:03;99693.56;;;14.18;100.00
64292;BME280;50628;51.008;13.658;2024-02-21T13:42:07;99674.06;;;14.48;100.00
64292;BME280;50628;51.008;13.658;2024-02-21T13:47:11;99665.53;;;14.82;100.00
64292;BME280;50628;51.008;13.658;2024-02-21T13:52:14;99660.72;;;14.95;100.00
64292;BME280;50628;51.008;13.658;2024-02-21T13:57:16;99636.91;;;14.88;100.00
64292;BME280;50628;51.008;13.658;2024-02-21T14:02:19;99631.47;;;15.08;100.00
64292;BME280;50628;51.008;13.658;2024-02-21T14:07:21;99622.13;;;15.40;100.00
64292;BME280;50628;51.008;13.658;2024-02-21T14:12:23;99614.69;;;15.69;100.00
64292;BME280;50628;51.008;13.658;2024-02-21T14:17:27;99611.44;;;15.33;99.99
64292;BME280;50628;51.008;13.658;2024-02-21T14:22:28;99605.72;;;15.03;96.74
64292;BME280;50628;51.008;13.658;2024-02-21T14:27:30;99600.56;;;15.20;97.47
64292;BME280;50628;51.008;13.658;2024-02-21T14:32:34;99592.97;;;15.51;91.79
64292;BME280;50628;51.008;13.658;2024-02-21T14:37:36;99590.13;;;15.87;79.38
64292;BME280;50628;51.008;13.658;2024-02-21T14:42:37;99590.13;;;15.78;77.29
64292;BME280;50628;51.008;13.658;2024-02-21T14:47:41;99585.75;;;15.45;65.44
64292;BME280;50628;51.008;13.658;2024-02-21T14:52:42;99580.78;;;15.92;64.39
64292;BME280;50628;51.008;13.658;2024-02-21T14:57:45;99585.75;;;16.36;57.24
64292;BME280;50628;51.008;13.658;2024-02-21T15:02:48;99574.16;;;15.64;61.97
64292;BME280;50628;51.008;13.658;2024-02-21T15:07:50;99573.47;;;15.53;62.81
64292;BME280;50628;51.008;13.658;2024-02-21T15:12:52;99565.72;;;16.02;56.96
64292;BME280;50628;51.008;13.658;2024-02-21T15:17:55;99557.66;;;16.53;54.51
64292;BME280;50628;51.008;13.658;2024-02-21T15:22:57;99553.50;;;15.69;61.71
64292;BME280;50628;51.008;13.658;2024-02-21T15:27:59;99554.53;;;14.91;66.47
64292;BME280;50628;51.008;13.658;2024-02-21T15:33:04;99541.59;;;14.37;74.77
64292;BME280;50628;51.008;13.658;2024-02-21T15:38:06;99530.22;;;13.84;85.90
64292;BME280;50628;51.008;13.658;2024-02-21T15:43:09;99519.41;;;13.34;93.29
64292;BME280;50628;51.008;13.658;2024-02-21T15:48:12;99512.06;;;13.10;100.00
64292;BME280;50628;51.008;13.658;2024-02-21T15:53:15;99498.88;;;12.84;100.00
64292;BME280;50628;51.008;13.658;2024-02-21T15:58:17;99483.28;;;12.54;100.00
64292;BME280;50628;51.008;13.658;2024-02-21T16:03:24;99470.72;;;12.40;100.00
64292;BME280;50628;51.008;13.658;2024-02-21T16:08:26;99458.91;;;12.36;100.00
64292;BME280;50628;51.008;13.658;2024-02-21T16:13:28;99457.31;;;12.06;100.00
64292;BME280;50628;51.008;13.658;2024-02-21T16:18:31;99446.78;;;11.88;100.00
64292;BME280;50628;51.008;13.658;2024-02-21T16:23:33;99438.94;;;11.59;100.00
64292;BME280;50628;51.008;13.658;2024-02-21T16:28:35;99424.25;;;11.29;100.00
64292;BME280;50628;51.008;13.658;2024-02-21T16:33:38;99421.59;;;10.90;100.00
64292;BME280;50628;51.008;13.658;2024-02-21T16:38:40;99418.81;;;10.72;100.00
64292;BME280;50628;51.008;13.658;2024-02-21T16:43:42;99419.81;;;10.50;100.00
64292;BME280;50628;51.008;13.658;2024-02-21T16:48:46;99419.88;;;10.29;100.00
64292;BME280;50628;51.008;13.658;2024-02-21T16:53:47;99419.41;;;10.03;100.00
64292;BME280;50628;51.008;13.658;2024-02-21T16:58:49;99411.31;;;9.96;100.00
64292;BME280;50628;51.008;13.658;2024-02-21T17:03:53;99403.72;;;9.83;100.00
64292;BME280;50628;51.008;13.658;2024-02-21T17:15:17;99390.53;;;9.22;100.00
64292;BME280;50628;51.008;13.658;2024-02-21T17:20:20;99380.91;;;9.01;100.00
64292;BME280;50628;51.008;13.658;2024-02-21T17:25:22;99371.28;;;8.92;100.00
64292;BME280;50628;51.008;13.658;2024-02-21T17:30:24;99374.84;;;8.69;100.00
64292;BME280;50628;51.008;13.658;2024-02-21T17:35:27;99382.56;;;8.48;100.00
64292;BME280;50628;51.008;13.658;2024-02-21T17:40:29;99377.00;;;8.41;100.00
64292;BME280;50628;51.008;13.658;2024-02-21T17:45:31;99372.63;;;8.30;100.00
64292;BME280;50628;51.008;13.658;2024-02-21T17:50:34;99363.56;;;8.24;100.00
64292;BME280;50628;51.008;13.658;2024-02-21T17:55:36;99357.53;;;8.13;100.00
64292;BME280;50628;51.008;13.658;2024-02-21T18:00:38;99360.81;;;8.03;100.00
64292;BME280;50628;51.008;13.658;2024-02-21T18:05:45;99344.44;;;7.80;100.00
64292;BME280;50628;51.008;13.658;2024-02-21T18:10:48;99334.97;;;7.57;100.00
64292;BME280;50628;51.008;13.658;2024-02-21T18:15:50;99337.97;;;7.28;100.00
64292;BME280;50628;51.008;13.658;2024-02-21T18:20:53;99322.94;;;7.45;100.00
64292;BME280;50628;51.008;13.658;2024-02-21T18:25:55;99308.22;;;7.45;100.00
64292;BME280;50628;51.008;13.658;2024-02-21T18:30:58;99300.69;;;7.31;100.00
64292;BME280;50628;51.008;13.658;2024-02-21T18:36:01;99293.72;;;7.31;100.00
64292;BME280;50628;51.008;13.658;2024-02-21T18:41:03;99293.00;;;7.29;100.00
64292;BME280;50628;51.008;13.658;2024-02-21T18:46:08;99286.38;;;7.14;100.00
64292;BME280;50628;51.008;13.658;2024-02-21T18:51:12;99276.84;;;7.03;100.00
64292;BME280;50628;51.008;13.658;2024-02-21T18:56:14;99285.91;;;7.09;100.00
64292;BME280;50628;51.008;13.658;2024-02-21T19:01:16;99266.31;;;6.93;100.00
64292;BME280;50628;51.008;13.658;2024-02-21T19:06:22;99265.03;;;6.99;100.00
64292;BME280;50628;51.008;13.658;2024-02-21T19:11:24;99245.28;;;6.98;100.00
64292;BME280;50628;51.008;13.658;2024-02-21T19:16:26;99236.91;;;6.94;100.00
64292;BME280;50628;51.008;13.658;2024-02-21T19:21:30;99230.09;;;6.93;100.00
64292;BME280;50628;51.008;13.658;2024-02-21T19:26:32;99218.94;;;6.93;100.00
64292;BME280;50628;51.008;13.658;2024-02-21T19:31:34;99199.84;;;6.83;100.00
64292;BME280;50628;51.008;13.658;2024-02-21T19:36:37;99191.59;;;6.78;100.00
64292;BME280;50628;51.008;13.658;2024-02-21T19:41:39;99176.91;;;6.78;100.00
64292;BME280;50628;51.008;13.658;2024-02-21T19:46:41;99161.34;;;6.67;100.00
64292;BME280;50628;51.008;13.658;2024-02-21T19:51:45;99149.13;;;6.69;100.00
64292;BME280;50628;51.008;13.658;2024-02-21T19:56:47;99144.09;;;6.79;100.00
64292;BME280;50628;51.008;13.658;2024-02-21T20:01:49;99131.19;;;6.90;100.00
64292;BME280;50628;51.008;13.658;2024-02-21T20:06:54;99125.91;;;6.91;100.00
64292;BME280;50628;51.008;13.658;2024-02-21T20:11:56;99121.69;;;6.90;100.00
64292;BME280;50628;51.008;13.658;2024-02-21T20:16:59;99118.19;;;6.56;100.00
64292;BME280;50628;51.008;13.658;2024-02-21T20:22:02;99113.50;;;6.72;100.00
64292;BME280;50628;51.008;13.658;2024-02-21T20:27:04;99112.50;;;6.86;100.00
64292;BME280;50628;51.008;13.658;2024-02-21T20:32:06;99114.59;;;6.92;100.00
64292;BME280;50628;51.008;13.658;2024-02-21T20:37:09;99099.56;;;6.98;100.00
64292;BME280;50628;51.008;13.658;2024-02-21T20:42:12;99094.75;;;7.04;100.00
64292;BME280;50628;51.008;13.658;2024-02-21T20:47:13;99087.69;;;6.84;100.00
64292;BME280;50628;51.008;13.658;2024-02-21T20:52:17;99079.09;;;6.94;100.00
64292;BME280;50628;51.008;13.658;2024-02-21T20:57:18;99076.75;;;6.91;100.00
64292;BME280;50628;51.008;13.658;2024-02-21T21:02:21;99071.59;;;6.91;100.00
64292;BME280;50628;51.008;13.658;2024-02-21T21:07:25;99073.00;;;7.07;100.00
64292;BME280;50628;51.008;13.658;2024-02-21T21:12:29;99068.28;;;7.12;100.00
64292;BME280;50628;51.008;13.658;2024-02-21T21:17:31;99051.09;;;7.22;100.00
64292;BME280;50628;51.008;13.658;2024-02-21T21:22:34;99042.41;;;7.23;100.00
64292;BME280;50628;51.008;13.658;2024-02-21T21:27:36;99029.47;;;7.12;100.00
64292;BME280;50628;51.008;13.658;2024-02-21T21:32:38;99029.69;;;7.20;100.00
64292;BME280;50628;51.008;13.658;2024-02-21T21:37:41;99022.41;;;7.14;100.00
64292;BME280;50628;51.008;13.658;2024-02-21T21:42:44;99021.09;;;7.20;100.00
64292;BME280;50628;51.008;13.658;2024-02-21T21:47:46;99020.97;;;7.32;100.00
64292;BME280;50628;51.008;13.658;2024-02-21T21:52:49;99011.47;;;7.22;100.00
64292;BME280;50628;51.008;13.658;2024-02-21T21:57:51;99010.63;;;7.32;100.00
64292;BME280;50628;51.008;13.658;2024-02-21T22:02:53;99004.72;;;7.30;100.00
64292;BME280;50628;51.008;13.658;2024-02-21T22:07:56;99001.34;;;7.19;100.00
64292;BME280;50628;51.008;13.658;2024-02-21T22:12:59;98997.31;;;7.37;100.00
64292;BME280;50628;51.008;13.658;2024-02-21T22:18:01;98988.38;;;7.30;100.00
64292;BME280;50628;51.008;13.658;2024-02-21T22:23:05;98986.53;;;7.09;100.00
64292;BME280;50628;51.008;13.658;2024-02-21T22:28:07;98976.94;;;6.89;100.00
64292;BME280;50628;51.008;13.658;2024-02-21T22:33:09;98971.88;;;6.99;100.00
64292;BME280;50628;51.008;13.658;2024-02-21T22:38:12;98968.75;;;7.59;100.00
64292;BME280;50628;51.008;13.658;2024-02-21T22:43:14;98967.59;;;8.48;100.00
64292;BME280;50628;51.008;13.658;2024-02-21T22:48:16;98960.22;;;9.34;100.00
64292;BME280;50628;51.008;13.658;2024-02-21T22:53:19;98958.88;;;9.78;100.00
64292;BME280;50628;51.008;13.658;2024-02-21T22:58:21;98954.72;;;10.05;100.00
64292;BME280;50628;51.008;13.658;2024-02-21T23:03:23;98940.72;;;10.25;100.00
64292;BME280;50628;51.008;13.658;2024-02-21T23:08:26;98944.00;;;10.37;100.00
64292;BME280;50628;51.008;13.658;2024-02-21T23:13:28;98932.75;;;10.46;100.00
64292;BME280;50628;51.008;13.658;2024-02-21T23:18:30;98931.78;;;10.47;100.00
64292;BME280;50628;51.008;13.658;2024-02-21T23:23:33;98924.34;;;10.52;100.00
64292;BME280;50628;51.008;13.658;2024-02-21T23:28:35;98907.16;;;10.42;100.00
64292;BME280;50628;51.008;13.658;2024-02-21T23:33:37;98897.53;;;10.52;100.00
64292;BME280;50628;51.008;13.658;2024-02-21T23:38:40;98886.44;;;10.50;100.00
64292;BME280;50628;51.008;13.658;2024-02-21T23:43:43;98875.09;;;10.51;100.00
64292;BME280;50628;51.008;13.658;2024-02-21T23:48:45;98862.16;;;10.59;100.00
64292;BME280;50628;51.008;13.658;2024-02-21T23:53:48;98853.34;;;10.70;100.00
64292;BME280;50628;51.008;13.658;2024-02-21T23:58:50;98842.06;;;10.79;100.00
